sensor_id;sensor_type;location;lat;lon;timestamp;P1;durP1;ratioP1;P2;durP2;ratioP2
3022;SDS011;1521;53.584;9.938;2023-04-24T00:01:47;13.50;;;10.70;;
3022;SDS011;1521;53.584;9.938;2023-04-24T00:04:12;13.20;;;10.80;;
3022;SDS011;1521;53.584;9.938;2023-04-24T00:06:41;16.13;;;10.90;;
3022;SDS011;1521;53.584;9.938;2023-04-24T00:09:08;15.40;;;11.80;;
3022;SDS011;1521;53.584;9.938;2023-04-24T00:11:35;14.27;;;11.00;;
3022;SDS011;1521;53.584;9.938;2023-04-24T00:14:01;13.83;;;11.73;;
3022;SDS011;1521;53.584;9.938;2023-04-24T00:16:27;16.33;;;12.57;;
3022;SDS011;1521;53.584;9.938;2023-04-24T00:18:53;15.00;;;12.00;;
3022;SDS011;1521;53.584;9.938;2023-04-24T00:21:19;14.30;;;11.70;;
3022;SDS011;1521;53.584;9.938;2023-04-24T00:23:45;17.40;;;12.63;;
3022;SDS011;1521;53.584;9.938;2023-04-24T00:26:12;14.90;;;12.20;;
3022;SDS011;1521;53.584;9.938;2023-04-24T00:28:37;13.27;;;11.80;;
3022;SDS011;1521;53.584;9.938;2023-04-24T00:31:03;13.60;;;11.10;;
3022;SDS011;1521;53.584;9.938;2023-04-24T00:33:29;14.07;;;11.90;;
3022;SDS011;1521;53.584;9.938;2023-04-24T00:35:54;13.53;;;12.10;;
3022;SDS011;1521;53.584;9.938;2023-04-24T00:38:20;16.80;;;12.67;;
3022;SDS011;1521;53.584;9.938;2023-04-24T00:40:47;13.60;;;11.73;;
3022;SDS011;1521;53.584;9.938;2023-04-24T00:43:13;14.93;;;11.93;;
3022;SDS011;1521;53.584;9.938;2023-04-24T00:45:38;13.27;;;11.60;;
3022;SDS011;1521;53.584;9.938;2023-04-24T00:48:05;17.43;;;12.17;;
3022;SDS011;1521;53.584;9.938;2023-04-24T00:50:30;15.00;;;10.80;;
3022;SDS011;1521;53.584;9.938;2023-04-24T00:52:56;16.20;;;10.90;;
3022;SDS011;1521;53.584;9.938;2023-04-24T00:55:22;12.37;;;10.83;;
3022;SDS011;1521;53.584;9.938;2023-04-24T00:57:47;12.60;;;10.70;;
3022;SDS011;1521;53.584;9.938;2023-04-24T01:00:14;13.50;;;11.43;;
3022;SDS011;1521;53.584;9.938;2023-04-24T01:02:41;15.10;;;11.23;;
3022;SDS011;1521;53.584;9.938;2023-04-24T01:05:11;15.47;;;11.50;;
3022;SDS011;1521;53.584;9.938;2023-04-24T01:07:38;13.37;;;10.70;;
3022;SDS011;1521;53.584;9.938;2023-04-24T01:10:06;13.43;;;11.00;;
3022;SDS011;1521;53.584;9.938;2023-04-24T01:12:33;13.67;;;9.57;;
3022;SDS011;1521;53.584;9.938;2023-04-24T01:14:58;11.57;;;10.37;;
3022;SDS011;1521;53.584;9.938;2023-04-24T01:17:24;12.63;;;10.53;;
3022;SDS011;1521;53.584;9.938;2023-04-24T01:19:50;13.60;;;11.00;;
3022;SDS011;1521;53.584;9.938;2023-04-24T01:22:18;13.47;;;11.07;;
3022;SDS011;1521;53.584;9.938;2023-04-24T01:24:45;12.20;;;10.13;;
3022;SDS011;1521;53.584;9.938;2023-04-24T01:27:11;10.63;;;9.53;;
3022;SDS011;1521;53.584;9.938;2023-04-24T01:29:37;10.23;;;9.17;;
3022;SDS011;1521;53.584;9.938;2023-04-24T01:32:03;11.90;;;9.57;;
3022;SDS011;1521;53.584;9.938;2023-04-24T01:34:30;10.23;;;9.13;;
3022;SDS011;1521;53.584;9.938;2023-04-24T01:36:55;11.50;;;8.83;;
3022;SDS011;1521;53.584;9.938;2023-04-24T01:39:21;12.00;;;8.40;;
3022;SDS011;1521;53.584;9.938;2023-04-24T01:41:48;12.80;;;8.67;;
3022;SDS011;1521;53.584;9.938;2023-04-24T01:44:15;9.63;;;7.40;;
3022;SDS011;1521;53.584;9.938;2023-04-24T01:46:41;11.83;;;7.87;;
3022;SDS011;1521;53.584;9.938;2023-04-24T01:49:06;8.30;;;7.30;;
3022;SDS011;1521;53.584;9.938;2023-04-24T01:51:32;7.13;;;6.00;;
3022;SDS011;1521;53.584;9.938;2023-04-24T01:53:58;7.00;;;6.20;;
3022;SDS011;1521;53.584;9.938;2023-04-24T01:56:23;6.20;;;5.60;;
3022;SDS011;1521;53.584;9.938;2023-04-24T01:58:50;8.23;;;4.70;;
3022;SDS011;1521;53.584;9.938;2023-04-24T02:01:19;6.13;;;4.93;;
3022;SDS011;1521;53.584;9.938;2023-04-24T02:03:45;7.53;;;5.63;;
3022;SDS011;1521;53.584;9.938;2023-04-24T02:06:10;5.70;;;4.50;;
3022;SDS011;1521;53.584;9.938;2023-04-24T02:08:36;7.13;;;4.70;;
3022;SDS011;1521;53.584;9.938;2023-04-24T02:11:02;7.20;;;4.70;;
3022;SDS011;1521;53.584;9.938;2023-04-24T02:13:27;6.20;;;4.80;;
3022;SDS011;1521;53.584;9.938;2023-04-24T02:15:53;6.07;;;4.80;;
3022;SDS011;1521;53.584;9.938;2023-04-24T02:18:19;5.23;;;4.33;;
3022;SDS011;1521;53.584;9.938;2023-04-24T02:20:44;4.20;;;3.90;;
3022;SDS011;1521;53.584;9.938;2023-04-24T02:23:10;3.87;;;3.47;;
3022;SDS011;1521;53.584;9.938;2023-04-24T02:25:36;3.63;;;2.70;;
3022;SDS011;1521;53.584;9.938;2023-04-24T02:28:02;3.70;;;3.40;;
3022;SDS011;1521;53.584;9.938;2023-04-24T02:30:27;4.37;;;3.17;;
3022;SDS011;1521;53.584;9.938;2023-04-24T02:32:53;3.27;;;2.97;;
3022;SDS011;1521;53.584;9.938;2023-04-24T02:35:19;3.40;;;3.10;;
3022;SDS011;1521;53.584;9.938;2023-04-24T02:37:45;6.37;;;3.80;;
3022;SDS011;1521;53.584;9.938;2023-04-24T02:40:10;4.77;;;4.17;;
3022;SDS011;1521;53.584;9.938;2023-04-24T02:42:36;5.30;;;4.20;;
3022;SDS011;1521;53.584;9.938;2023-04-24T02:45:02;7.17;;;4.23;;
3022;SDS011;1521;53.584;9.938;2023-04-24T02:47:27;3.70;;;3.40;;
3022;SDS011;1521;53.584;9.938;2023-04-24T02:49:53;4.23;;;3.83;;
3022;SDS011;1521;53.584;9.938;2023-04-24T02:52:18;4.93;;;3.77;;
3022;SDS011;1521;53.584;9.938;2023-04-24T02:54:44;4.60;;;4.17;;
3022;SDS011;1521;53.584;9.938;2023-04-24T02:57:10;5.70;;;3.67;;
3022;SDS011;1521;53.584;9.938;2023-04-24T02:59:35;4.70;;;4.20;;
3022;SDS011;1521;53.584;9.938;2023-04-24T03:02:01;5.07;;;4.33;;
3022;SDS011;1521;53.584;9.938;2023-04-24T03:04:26;4.10;;;3.70;;
3022;SDS011;1521;53.584;9.938;2023-04-24T03:06:52;4.60;;;3.80;;
3022;SDS011;1521;53.584;9.938;2023-04-24T03:09:19;7.90;;;4.47;;
3022;SDS011;1521;53.584;9.938;2023-04-24T03:11:45;5.00;;;4.20;;
3022;SDS011;1521;53.584;9.938;2023-04-24T03:14:11;4.00;;;3.70;;
3022;SDS011;1521;53.584;9.938;2023-04-24T03:16:37;3.73;;;3.43;;
3022;SDS011;1521;53.584;9.938;2023-04-24T03:19:02;3.70;;;3.40;;
3022;SDS011;1521;53.584;9.938;2023-04-24T03:21:28;3.80;;;3.50;;
3022;SDS011;1521;53.584;9.938;2023-04-24T03:23:53;4.10;;;3.53;;
3022;SDS011;1521;53.584;9.938;2023-04-24T03:26:19;5.40;;;3.57;;
3022;SDS011;1521;53.584;9.938;2023-04-24T03:28:45;4.33;;;3.37;;
3022;SDS011;1521;53.584;9.938;2023-04-24T03:31:11;3.50;;;3.20;;
3022;SDS011;1521;53.584;9.938;2023-04-24T03:33:36;4.30;;;3.90;;
3022;SDS011;1521;53.584;9.938;2023-04-24T03:36:02;5.20;;;4.70;;
3022;SDS011;1521;53.584;9.938;2023-04-24T03:38:28;6.07;;;3.70;;
3022;SDS011;1521;53.584;9.938;2023-04-24T03:40:53;4.80;;;4.30;;
3022;SDS011;1521;53.584;9.938;2023-04-24T03:43:19;5.37;;;3.73;;
3022;SDS011;1521;53.584;9.938;2023-04-24T03:45:44;5.70;;;2.93;;
3022;SDS011;1521;53.584;9.938;2023-04-24T03:48:10;6.33;;;3.63;;
3022;SDS011;1521;53.584;9.938;2023-04-24T03:50:36;4.80;;;3.60;;
3022;SDS011;1521;53.584;9.938;2023-04-24T03:53:01;4.23;;;3.83;;
3022;SDS011;1521;53.584;9.938;2023-04-24T03:55:27;3.90;;;3.53;;
3022;SDS011;1521;53.584;9.938;2023-04-24T03:57:52;5.80;;;3.50;;
3022;SDS011;1521;53.584;9.938;2023-04-24T04:00:18;3.47;;;3.17;;
3022;SDS011;1521;53.584;9.938;2023-04-24T04:02:44;2.97;;;2.77;;
3022;SDS011;1521;53.584;9.938;2023-04-24T04:05:10;3.87;;;3.57;;
3022;SDS011;1521;53.584;9.938;2023-04-24T04:07:35;4.57;;;3.30;;
3022;SDS011;1521;53.584;9.938;2023-04-24T04:10:01;3.20;;;3.00;;
3022;SDS011;1521;53.584;9.938;2023-04-24T04:12:26;3.40;;;3.10;;
3022;SDS011;1521;53.584;9.938;2023-04-24T04:14:52;3.83;;;2.90;;
3022;SDS011;1521;53.584;9.938;2023-04-24T04:17:18;9.00;;;3.60;;
3022;SDS011;1521;53.584;9.938;2023-04-24T04:19:43;6.37;;;3.60;;
3022;SDS011;1521;53.584;9.938;2023-04-24T04:22:09;6.63;;;4.30;;
3022;SDS011;1521;53.584;9.938;2023-04-24T04:24:35;6.37;;;3.60;;
3022;SDS011;1521;53.584;9.938;2023-04-24T04:27:03;5.47;;;4.00;;
3022;SDS011;1521;53.584;9.938;2023-04-24T04:29:29;4.03;;;3.40;;
3022;SDS011;1521;53.584;9.938;2023-04-24T04:31:56;3.73;;;2.97;;
3022;SDS011;1521;53.584;9.938;2023-04-24T04:34:22;3.23;;;2.93;;
3022;SDS011;1521;53.584;9.938;2023-04-24T04:36:48;2.77;;;2.47;;
3022;SDS011;1521;53.584;9.938;2023-04-24T04:39:15;2.67;;;2.40;;
3022;SDS011;1521;53.584;9.938;2023-04-24T04:41:41;3.07;;;2.50;;
3022;SDS011;1521;53.584;9.938;2023-04-24T04:44:07;3.20;;;2.50;;
3022;SDS011;1521;53.584;9.938;2023-04-24T04:46:33;2.80;;;2.60;;
3022;SDS011;1521;53.584;9.938;2023-04-24T04:49:01;2.60;;;2.40;;
3022;SDS011;1521;53.584;9.938;2023-04-24T04:51:27;3.43;;;2.27;;
3022;SDS011;1521;53.584;9.938;2023-04-24T04:53:53;2.90;;;2.30;;
3022;SDS011;1521;53.584;9.938;2023-04-24T04:56:18;2.73;;;2.40;;
3022;SDS011;1521;53.584;9.938;2023-04-24T04:58:44;9.00;;;3.03;;
3022;SDS011;1521;53.584;9.938;2023-04-24T05:01:09;7.00;;;3.13;;
3022;SDS011;1521;53.584;9.938;2023-04-24T05:03:35;6.07;;;3.13;;
3022;SDS011;1521;53.584;9.938;2023-04-24T05:06:01;5.97;;;3.53;;
3022;SDS011;1521;53.584;9.938;2023-04-24T05:08:27;5.23;;;3.10;;
3022;SDS011;1521;53.584;9.938;2023-04-24T05:10:53;6.27;;;3.43;;
3022;SDS011;1521;53.584;9.938;2023-04-24T05:13:19;3.90;;;2.87;;
3022;SDS011;1521;53.584;9.938;2023-04-24T05:15:44;2.97;;;2.50;;
3022;SDS011;1521;53.584;9.938;2023-04-24T05:18:10;4.50;;;2.63;;
3022;SDS011;1521;53.584;9.938;2023-04-24T05:20:36;3.83;;;2.53;;
3022;SDS011;1521;53.584;9.938;2023-04-24T05:23:01;4.30;;;2.47;;
3022;SDS011;1521;53.584;9.938;2023-04-24T05:25:27;4.40;;;2.50;;
3022;SDS011;1521;53.584;9.938;2023-04-24T05:27:52;4.77;;;2.70;;
3022;SDS011;1521;53.584;9.938;2023-04-24T05:30:18;3.50;;;2.10;;
3022;SDS011;1521;53.584;9.938;2023-04-24T05:32:44;8.87;;;2.40;;
3022;SDS011;1521;53.584;9.938;2023-04-24T05:35:10;2.77;;;2.00;;
3022;SDS011;1521;53.584;9.938;2023-04-24T05:37:36;5.90;;;2.03;;
3022;SDS011;1521;53.584;9.938;2023-04-24T05:40:02;6.50;;;2.20;;
3022;SDS011;1521;53.584;9.938;2023-04-24T05:42:30;6.87;;;2.37;;
3022;SDS011;1521;53.584;9.938;2023-04-24T05:44:56;2.80;;;2.23;;
3022;SDS011;1521;53.584;9.938;2023-04-24T05:47:21;2.30;;;2.10;;
3022;SDS011;1521;53.584;9.938;2023-04-24T05:49:47;4.93;;;2.30;;
3022;SDS011;1521;53.584;9.938;2023-04-24T05:52:13;4.47;;;2.70;;
3022;SDS011;1521;53.584;9.938;2023-04-24T05:54:38;3.80;;;2.63;;
3022;SDS011;1521;53.584;9.938;2023-04-24T05:57:04;4.00;;;2.20;;
3022;SDS011;1521;53.584;9.938;2023-04-24T05:59:33;3.70;;;2.83;;
3022;SDS011;1521;53.584;9.938;2023-04-24T06:02:02;4.70;;;2.63;;
3022;SDS011;1521;53.584;9.938;2023-04-24T06:04:27;2.90;;;2.30;;
3022;SDS011;1521;53.584;9.938;2023-04-24T06:06:53;2.30;;;2.10;;
3022;SDS011;1521;53.584;9.938;2023-04-24T06:09:21;2.10;;;2.00;;
3022;SDS011;1521;53.584;9.938;2023-04-24T06:11:47;3.43;;;2.30;;
3022;SDS011;1521;53.584;9.938;2023-04-24T06:14:13;3.57;;;2.80;;
3022;SDS011;1521;53.584;9.938;2023-04-24T06:16:41;3.43;;;2.10;;
3022;SDS011;1521;53.584;9.938;2023-04-24T06:19:07;3.73;;;2.47;;
3022;SDS011;1521;53.584;9.938;2023-04-24T06:21:33;5.73;;;2.70;;
3022;SDS011;1521;53.584;9.938;2023-04-24T06:23:58;2.30;;;2.10;;
3022;SDS011;1521;53.584;9.938;2023-04-24T06:26:24;2.50;;;2.30;;
3022;SDS011;1521;53.584;9.938;2023-04-24T06:28:51;3.10;;;2.30;;
3022;SDS011;1521;53.584;9.938;2023-04-24T06:31:18;3.40;;;2.23;;
3022;SDS011;1521;53.584;9.938;2023-04-24T06:33:44;2.80;;;2.60;;
3022;SDS011;1521;53.584;9.938;2023-04-24T06:36:10;2.33;;;2.13;;
3022;SDS011;1521;53.584;9.938;2023-04-24T06:38:36;2.23;;;2.03;;
3022;SDS011;1521;53.584;9.938;2023-04-24T06:41:02;6.43;;;3.07;;
3022;SDS011;1521;53.584;9.938;2023-04-24T06:43:30;2.40;;;2.20;;
3022;SDS011;1521;53.584;9.938;2023-04-24T06:45:56;2.53;;;2.33;;
3022;SDS011;1521;53.584;9.938;2023-04-24T06:48:23;5.67;;;1.93;;
3022;SDS011;1521;53.584;9.938;2023-04-24T06:50:50;3.03;;;2.77;;
3022;SDS011;1521;53.584;9.938;2023-04-24T06:53:15;2.57;;;2.37;;
3022;SDS011;1521;53.584;9.938;2023-04-24T06:55:41;2.90;;;2.67;;
3022;SDS011;1521;53.584;9.938;2023-04-24T06:58:08;3.23;;;2.70;;
3022;SDS011;1521;53.584;9.938;2023-04-24T07:00:34;3.00;;;2.77;;
3022;SDS011;1521;53.584;9.938;2023-04-24T07:03:00;3.37;;;3.10;;
3022;SDS011;1521;53.584;9.938;2023-04-24T07:05:25;8.43;;;3.10;;
3022;SDS011;1521;53.584;9.938;2023-04-24T07:07:51;3.37;;;3.17;;
3022;SDS011;1521;53.584;9.938;2023-04-24T07:10:17;4.30;;;3.10;;
3022;SDS011;1521;53.584;9.938;2023-04-24T07:12:43;5.20;;;3.10;;
3022;SDS011;1521;53.584;9.938;2023-04-24T07:15:08;4.07;;;3.67;;
3022;SDS011;1521;53.584;9.938;2023-04-24T07:17:35;4.40;;;3.35;;
3022;SDS011;1521;53.584;9.938;2023-04-24T07:20:03;3.90;;;3.47;;
3022;SDS011;1521;53.584;9.938;2023-04-24T07:22:29;5.70;;;3.87;;
3022;SDS011;1521;53.584;9.938;2023-04-24T07:24:55;4.30;;;3.90;;
3022;SDS011;1521;53.584;9.938;2023-04-24T07:27:20;4.67;;;4.27;;
3022;SDS011;1521;53.584;9.938;2023-04-24T07:29:46;5.23;;;4.80;;
3022;SDS011;1521;53.584;9.938;2023-04-24T07:32:12;4.30;;;3.90;;
3022;SDS011;1521;53.584;9.938;2023-04-24T07:34:37;6.47;;;4.93;;
3022;SDS011;1521;53.584;9.938;2023-04-24T07:37:03;4.77;;;4.37;;
3022;SDS011;1521;53.584;9.938;2023-04-24T07:39:28;4.93;;;4.53;;
3022;SDS011;1521;53.584;9.938;2023-04-24T07:41:54;5.40;;;4.93;;
3022;SDS011;1521;53.584;9.938;2023-04-24T07:44:20;6.40;;;5.73;;
3022;SDS011;1521;53.584;9.938;2023-04-24T07:46:45;8.00;;;5.27;;
3022;SDS011;1521;53.584;9.938;2023-04-24T07:49:12;7.37;;;5.07;;
3022;SDS011;1521;53.584;9.938;2023-04-24T07:51:37;7.57;;;5.50;;
3022;SDS011;1521;53.584;9.938;2023-04-24T07:54:03;6.87;;;5.50;;
3022;SDS011;1521;53.584;9.938;2023-04-24T07:56:31;6.67;;;6.00;;
3022;SDS011;1521;53.584;9.938;2023-04-24T07:58:56;5.33;;;4.90;;
3022;SDS011;1521;53.584;9.938;2023-04-24T08:01:22;7.33;;;5.40;;
3022;SDS011;1521;53.584;9.938;2023-04-24T08:03:47;5.93;;;5.33;;
3022;SDS011;1521;53.584;9.938;2023-04-24T08:06:13;6.80;;;5.50;;
3022;SDS011;1521;53.584;9.938;2023-04-24T08:08:39;6.10;;;5.53;;
3022;SDS011;1521;53.584;9.938;2023-04-24T08:11:04;6.20;;;5.60;;
3022;SDS011;1521;53.584;9.938;2023-04-24T08:13:30;6.77;;;6.07;;
3022;SDS011;1521;53.584;9.938;2023-04-24T08:15:56;7.73;;;6.17;;
3022;SDS011;1521;53.584;9.938;2023-04-24T08:18:22;8.40;;;6.93;;
3022;SDS011;1521;53.584;9.938;2023-04-24T08:20:47;10.10;;;6.47;;
3022;SDS011;1521;53.584;9.938;2023-04-24T08:23:13;6.80;;;6.20;;
3022;SDS011;1521;53.584;9.938;2023-04-24T08:25:39;8.00;;;6.93;;
3022;SDS011;1521;53.584;9.938;2023-04-24T08:28:05;7.33;;;6.63;;
3022;SDS011;1521;53.584;9.938;2023-04-24T08:30:31;8.77;;;7.60;;
3022;SDS011;1521;53.584;9.938;2023-04-24T08:32:57;8.10;;;7.30;;
3022;SDS011;1521;53.584;9.938;2023-04-24T08:35:23;8.30;;;7.50;;
3022;SDS011;1521;53.584;9.938;2023-04-24T08:37:48;7.40;;;6.70;;
3022;SDS011;1521;53.584;9.938;2023-04-24T08:40:15;10.20;;;7.20;;
3022;SDS011;1521;53.584;9.938;2023-04-24T08:42:41;8.47;;;7.37;;
3022;SDS011;1521;53.584;9.938;2023-04-24T08:45:09;8.03;;;7.17;;
3022;SDS011;1521;53.584;9.938;2023-04-24T08:47:38;7.97;;;7.20;;
3022;SDS011;1521;53.584;9.938;2023-04-24T08:50:05;7.57;;;6.77;;
3022;SDS011;1521;53.584;9.938;2023-04-24T08:52:32;10.07;;;7.10;;
3022;SDS011;1521;53.584;9.938;2023-04-24T08:54:59;9.37;;;7.90;;
3022;SDS011;1521;53.584;9.938;2023-04-24T08:57:26;8.47;;;7.67;;
3022;SDS011;1521;53.584;9.938;2023-04-24T08:59:52;9.10;;;7.80;;
3022;SDS011;1521;53.584;9.938;2023-04-24T09:02:19;9.37;;;7.87;;
3022;SDS011;1521;53.584;9.938;2023-04-24T09:04:45;8.87;;;7.97;;
3022;SDS011;1521;53.584;9.938;2023-04-24T09:07:12;9.60;;;8.03;;
3022;SDS011;1521;53.584;9.938;2023-04-24T09:09:41;9.10;;;8.07;;
3022;SDS011;1521;53.584;9.938;2023-04-24T09:12:07;9.60;;;7.87;;
3022;SDS011;1521;53.584;9.938;2023-04-24T09:14:35;11.40;;;7.27;;
3022;SDS011;1521;53.584;9.938;2023-04-24T09:17:04;9.57;;;8.57;;
3022;SDS011;1521;53.584;9.938;2023-04-24T09:19:31;8.93;;;8.03;;
3022;SDS011;1521;53.584;9.938;2023-04-24T09:21:56;8.83;;;7.40;;
3022;SDS011;1521;53.584;9.938;2023-04-24T09:24:22;12.10;;;7.50;;
3022;SDS011;1521;53.584;9.938;2023-04-24T09:26:48;9.33;;;7.50;;
3022;SDS011;1521;53.584;9.938;2023-04-24T09:29:17;10.20;;;8.20;;
3022;SDS011;1521;53.584;9.938;2023-04-24T09:31:44;8.13;;;7.23;;
3022;SDS011;1521;53.584;9.938;2023-04-24T09:34:11;8.83;;;7.63;;
3022;SDS011;1521;53.584;9.938;2023-04-24T09:39:12;8.20;;;7.37;;
3022;SDS011;1521;53.584;9.938;2023-04-24T09:41:54;8.30;;;7.50;;
3022;SDS011;1521;53.584;9.938;2023-04-24T09:44:22;9.13;;;8.10;;
3022;SDS011;1521;53.584;9.938;2023-04-24T09:46:56;10.43;;;8.47;;
3022;SDS011;1521;53.584;9.938;2023-04-24T09:49:23;9.03;;;8.13;;
3022;SDS011;1521;53.584;9.938;2023-04-24T09:51:50;12.13;;;8.50;;
3022;SDS011;1521;53.584;9.938;2023-04-24T09:54:17;15.60;;;8.33;;
3022;SDS011;1521;53.584;9.938;2023-04-24T09:56:48;11.73;;;8.90;;
3022;SDS011;1521;53.584;9.938;2023-04-24T09:59:15;12.63;;;9.40;;
3022;SDS011;1521;53.584;9.938;2023-04-24T10:01:42;11.50;;;9.37;;
3022;SDS011;1521;53.584;9.938;2023-04-24T10:04:30;10.10;;;8.97;;
3022;SDS011;1521;53.584;9.938;2023-04-24T10:06:55;16.80;;;10.63;;
3022;SDS011;1521;53.584;9.938;2023-04-24T10:09:23;11.23;;;10.03;;
3022;SDS011;1521;53.584;9.938;2023-04-24T10:11:50;12.10;;;10.30;;
3022;SDS011;1521;53.584;9.938;2023-04-24T10:14:19;12.23;;;10.73;;
3022;SDS011;1521;53.584;9.938;2023-04-24T10:16:48;14.80;;;11.00;;
3022;SDS011;1521;53.584;9.938;2023-04-24T10:19:15;13.30;;;10.87;;
3022;SDS011;1521;53.584;9.938;2023-04-24T10:21:42;13.97;;;10.77;;
3022;SDS011;1521;53.584;9.938;2023-04-24T10:24:12;15.27;;;11.27;;
3022;SDS011;1521;53.584;9.938;2023-04-24T10:26:39;15.27;;;11.10;;
3022;SDS011;1521;53.584;9.938;2023-04-24T10:29:06;20.20;;;11.83;;
3022;SDS011;1521;53.584;9.938;2023-04-24T10:31:35;16.73;;;11.03;;
3022;SDS011;1521;53.584;9.938;2023-04-24T10:34:02;14.70;;;11.47;;
3022;SDS011;1521;53.584;9.938;2023-04-24T10:36:29;17.60;;;13.00;;
3022;SDS011;1521;53.584;9.938;2023-04-24T10:38:57;16.30;;;12.97;;
3022;SDS011;1521;53.584;9.938;2023-04-24T10:41:26;15.00;;;12.20;;
3022;SDS011;1521;53.584;9.938;2023-04-24T10:44:05;15.00;;;12.00;;
3022;SDS011;1521;53.584;9.938;2023-04-24T10:46:31;18.27;;;12.73;;
3022;SDS011;1521;53.584;9.938;2023-04-24T10:48:57;18.47;;;13.33;;
3022;SDS011;1521;53.584;9.938;2023-04-24T10:51:23;21.30;;;12.40;;
3022;SDS011;1521;53.584;9.938;2023-04-24T10:53:52;20.35;;;13.23;;
3022;SDS011;1521;53.584;9.938;2023-04-24T10:56:17;15.63;;;12.57;;
3022;SDS011;1521;53.584;9.938;2023-04-24T10:58:49;18.90;;;13.07;;
3022;SDS011;1521;53.584;9.938;2023-04-24T11:01:28;21.17;;;12.10;;
3022;SDS011;1521;53.584;9.938;2023-04-24T11:04:01;19.87;;;12.57;;
3022;SDS011;1521;53.584;9.938;2023-04-24T11:06:30;24.10;;;12.30;;
3022;SDS011;1521;53.584;9.938;2023-04-24T11:09:10;26.97;;;12.20;;
3022;SDS011;1521;53.584;9.938;2023-04-24T11:11:44;16.80;;;12.00;;
3022;SDS011;1521;53.584;9.938;2023-04-24T11:14:13;22.87;;;11.90;;
3022;SDS011;1521;53.584;9.938;2023-04-24T11:16:44;16.80;;;12.00;;
3022;SDS011;1521;53.584;9.938;2023-04-24T11:21:43;16.10;;;12.53;;
3022;SDS011;1521;53.584;9.938;2023-04-24T11:24:29;19.07;;;11.47;;
3022;SDS011;1521;53.584;9.938;2023-04-24T11:37:23;14.90;;;11.37;;
3022;SDS011;1521;53.584;9.938;2023-04-24T11:39:52;16.10;;;11.80;;
3022;SDS011;1521;53.584;9.938;2023-04-24T11:42:19;12.07;;;10.80;;
3022;SDS011;1521;53.584;9.938;2023-04-24T11:44:46;16.17;;;12.65;;
3022;SDS011;1521;53.584;9.938;2023-04-24T11:47:14;14.77;;;10.90;;
3022;SDS011;1521;53.584;9.938;2023-04-24T11:49:40;15.20;;;11.70;;
3022;SDS011;1521;53.584;9.938;2023-04-24T11:52:05;12.20;;;10.53;;
3022;SDS011;1521;53.584;9.938;2023-04-24T11:54:31;15.83;;;11.83;;
3022;SDS011;1521;53.584;9.938;2023-04-24T11:56:57;15.80;;;12.00;;
3022;SDS011;1521;53.584;9.938;2023-04-24T11:59:23;12.00;;;10.00;;
3022;SDS011;1521;53.584;9.938;2023-04-24T12:01:49;12.93;;;9.83;;
3022;SDS011;1521;53.584;9.938;2023-04-24T12:04:15;14.77;;;10.03;;
3022;SDS011;1521;53.584;9.938;2023-04-24T12:09:50;9.53;;;8.60;;
3022;SDS011;1521;53.584;9.938;2023-04-24T12:12:23;11.13;;;8.90;;
3022;SDS011;1521;53.584;9.938;2023-04-24T12:14:54;10.27;;;8.40;;
3022;SDS011;1521;53.584;9.938;2023-04-24T12:17:27;10.20;;;9.10;;
3022;SDS011;1521;53.584;9.938;2023-04-24T12:19:57;16.57;;;10.33;;
3022;SDS011;1521;53.584;9.938;2023-04-24T12:22:27;10.83;;;9.60;;
3022;SDS011;1521;53.584;9.938;2023-04-24T12:24:57;12.07;;;9.30;;
3022;SDS011;1521;53.584;9.938;2023-04-24T12:27:31;10.90;;;8.80;;
3022;SDS011;1521;53.584;9.938;2023-04-24T12:29:57;10.33;;;9.20;;
3022;SDS011;1521;53.584;9.938;2023-04-24T12:32:24;11.33;;;9.43;;
3022;SDS011;1521;53.584;9.938;2023-04-24T12:34:51;11.63;;;9.83;;
3022;SDS011;1521;53.584;9.938;2023-04-24T12:37:17;13.53;;;9.43;;
3022;SDS011;1521;53.584;9.938;2023-04-24T12:40:03;14.17;;;9.60;;
3022;SDS011;1521;53.584;9.938;2023-04-24T12:42:33;12.23;;;9.90;;
3022;SDS011;1521;53.584;9.938;2023-04-24T12:45:03;11.73;;;9.27;;
3022;SDS011;1521;53.584;9.938;2023-04-24T12:47:31;14.90;;;10.40;;
3022;SDS011;1521;53.584;9.938;2023-04-24T12:49:58;11.70;;;10.00;;
3022;SDS011;1521;53.584;9.938;2023-04-24T12:52:24;10.70;;;9.38;;
3022;SDS011;1521;53.584;9.938;2023-04-24T12:54:54;11.87;;;9.60;;
3022;SDS011;1521;53.584;9.938;2023-04-24T12:57:24;13.57;;;10.40;;
3022;SDS011;1521;53.584;9.938;2023-04-24T12:59:53;13.03;;;9.50;;
3022;SDS011;1521;53.584;9.938;2023-04-24T13:02:20;11.33;;;8.70;;
3022;SDS011;1521;53.584;9.938;2023-04-24T13:04:47;12.77;;;10.10;;
3022;SDS011;1521;53.584;9.938;2023-04-24T13:07:13;12.73;;;9.20;;
3022;SDS011;1521;53.584;9.938;2023-04-24T13:09:39;12.73;;;9.43;;
3022;SDS011;1521;53.584;9.938;2023-04-24T13:12:05;10.83;;;8.63;;
3022;SDS011;1521;53.584;9.938;2023-04-24T13:14:32;10.90;;;8.13;;
3022;SDS011;1521;53.584;9.938;2023-04-24T13:16:57;10.60;;;9.10;;
3022;SDS011;1521;53.584;9.938;2023-04-24T13:19:26;11.80;;;8.83;;
3022;SDS011;1521;53.584;9.938;2023-04-24T13:21:53;9.00;;;8.10;;
3022;SDS011;1521;53.584;9.938;2023-04-24T13:24:20;10.87;;;9.10;;
3022;SDS011;1521;53.584;9.938;2023-04-24T13:26:49;9.20;;;8.10;;
3022;SDS011;1521;53.584;9.938;2023-04-24T13:29:16;9.30;;;7.83;;
3022;SDS011;1521;53.584;9.938;2023-04-24T13:31:41;11.33;;;9.03;;
3022;SDS011;1521;53.584;9.938;2023-04-24T13:34:07;8.53;;;7.67;;
3022;SDS011;1521;53.584;9.938;2023-04-24T13:36:33;9.70;;;8.43;;
3022;SDS011;1521;53.584;9.938;2023-04-24T13:38:58;8.30;;;7.50;;
3022;SDS011;1521;53.584;9.938;2023-04-24T13:41:24;10.70;;;8.57;;
3022;SDS011;1521;53.584;9.938;2023-04-24T13:43:50;9.33;;;7.90;;
3022;SDS011;1521;53.584;9.938;2023-04-24T13:46:16;9.40;;;7.83;;
3022;SDS011;1521;53.584;9.938;2023-04-24T13:48:41;12.00;;;7.87;;
3022;SDS011;1521;53.584;9.938;2023-04-24T13:51:07;10.30;;;8.57;;
3022;SDS011;1521;53.584;9.938;2023-04-24T13:53:33;12.03;;;8.93;;
3022;SDS011;1521;53.584;9.938;2023-04-24T13:56:03;12.10;;;8.80;;
3022;SDS011;1521;53.584;9.938;2023-04-24T13:58:29;8.70;;;7.80;;
3022;SDS011;1521;53.584;9.938;2023-04-24T14:00:54;9.70;;;7.63;;
3022;SDS011;1521;53.584;9.938;2023-04-24T14:03:20;11.30;;;7.83;;
3022;SDS011;1521;53.584;9.938;2023-04-24T14:05:46;10.57;;;8.67;;
3022;SDS011;1521;53.584;9.938;2023-04-24T14:08:11;11.20;;;8.00;;
3022;SDS011;1521;53.584;9.938;2023-04-24T14:10:37;8.70;;;7.80;;
3022;SDS011;1521;53.584;9.938;2023-04-24T14:13:02;9.93;;;8.30;;
3022;SDS011;1521;53.584;9.938;2023-04-24T14:15:28;8.97;;;7.90;;
3022;SDS011;1521;53.584;9.938;2023-04-24T14:17:54;10.33;;;7.90;;
3022;SDS011;1521;53.584;9.938;2023-04-24T14:20:20;8.10;;;6.47;;
3022;SDS011;1521;53.584;9.938;2023-04-24T14:22:45;8.20;;;7.43;;
3022;SDS011;1521;53.584;9.938;2023-04-24T14:25:11;8.47;;;7.53;;
3022;SDS011;1521;53.584;9.938;2023-04-24T14:27:37;9.23;;;8.20;;
3022;SDS011;1521;53.584;9.938;2023-04-24T14:30:03;8.83;;;7.90;;
3022;SDS011;1521;53.584;9.938;2023-04-24T14:32:29;10.30;;;8.70;;
3022;SDS011;1521;53.584;9.938;2023-04-24T14:34:55;11.83;;;9.67;;
3022;SDS011;1521;53.584;9.938;2023-04-24T14:37:20;11.43;;;9.90;;
3022;SDS011;1521;53.584;9.938;2023-04-24T14:39:46;11.87;;;10.57;;
3022;SDS011;1521;53.584;9.938;2023-04-24T14:42:11;13.90;;;11.67;;
3022;SDS011;1521;53.584;9.938;2023-04-24T14:44:37;15.27;;;11.67;;
3022;SDS011;1521;53.584;9.938;2023-04-24T14:47:02;13.90;;;11.70;;
3022;SDS011;1521;53.584;9.938;2023-04-24T14:49:28;16.57;;;13.47;;
3022;SDS011;1521;53.584;9.938;2023-04-24T14:51:54;16.47;;;12.73;;
3022;SDS011;1521;53.584;9.938;2023-04-24T14:54:19;16.50;;;13.60;;
3022;SDS011;1521;53.584;9.938;2023-04-24T14:56:48;18.30;;;13.87;;
3022;SDS011;1521;53.584;9.938;2023-04-24T14:59:14;16.23;;;13.53;;
3022;SDS011;1521;53.584;9.938;2023-04-24T15:01:39;19.17;;;14.27;;
3022;SDS011;1521;53.584;9.938;2023-04-24T15:04:05;17.70;;;14.03;;
3022;SDS011;1521;53.584;9.938;2023-04-24T15:06:31;14.10;;;11.20;;
3022;SDS011;1521;53.584;9.938;2023-04-24T15:08:57;15.47;;;10.73;;
3022;SDS011;1521;53.584;9.938;2023-04-24T15:11:23;13.90;;;10.90;;
3022;SDS011;1521;53.584;9.938;2023-04-24T15:13:49;13.37;;;10.23;;
3022;SDS011;1521;53.584;9.938;2023-04-24T15:16:15;10.37;;;7.50;;
3022;SDS011;1521;53.584;9.938;2023-04-24T15:18:41;9.27;;;6.80;;
3022;SDS011;1521;53.584;9.938;2023-04-24T15:21:06;6.10;;;5.00;;